sensor_id;sensor_type;location;lat;lon;timestamp;temperature;humidity
64937;SHT30;51452;47.698;19.050;2023-06-26T00:01:49;20.75;65.24
64937;SHT30;51452;47.698;19.050;2023-06-26T00:04:15;20.71;65.49
64937;SHT30;51452;47.698;19.050;2023-06-26T00:06:40;20.75;65.55
64937;SHT30;51452;47.698;19.050;2023-06-26T00:09:07;20.69;65.53
64937;SHT30;51452;47.698;19.050;2023-06-26T00:11:32;20.66;65.54
64937;SHT30;51452;47.698;19.050;2023-06-26T00:13:59;20.65;65.39
64937;SHT30;51452;47.698;19.050;2023-06-26T00:16:26;20.65;65.36
64937;SHT30;51452;47.698;19.050;2023-06-26T00:18:51;20.65;65.64
64937;SHT30;51452;47.698;19.050;2023-06-26T00:21:16;20.68;65.96
64937;SHT30;51452;47.698;19.050;2023-06-26T00:23:42;20.69;65.96
64937;SHT30;51452;47.698;19.050;2023-06-26T00:26:07;20.72;65.63
64937;SHT30;51452;47.698;19.050;2023-06-26T00:28:34;20.69;65.25
64937;SHT30;51452;47.698;19.050;2023-06-26T00:30:59;20.69;65.73
64937;SHT30;51452;47.698;19.050;2023-06-26T00:33:25;20.66;65.53
64937;SHT30;51452;47.698;19.050;2023-06-26T00:35:50;20.65;65.75
64937;SHT30;51452;47.698;19.050;2023-06-26T00:38:15;20.59;66.07
64937;SHT30;51452;47.698;19.050;2023-06-26T00:40:42;20.55;66.13
64937;SHT30;51452;47.698;19.050;2023-06-26T00:43:08;20.56;66.25
64937;SHT30;51452;47.698;19.050;2023-06-26T00:45:33;20.49;66.40
64937;SHT30;51452;47.698;19.050;2023-06-26T00:47:59;20.52;66.31
64937;SHT30;51452;47.698;19.050;2023-06-26T00:50:24;20.41;65.85
64937;SHT30;51452;47.698;19.050;2023-06-26T00:52:50;20.42;65.83
64937;SHT30;51452;47.698;19.050;2023-06-26T00:55:15;20.52;65.70
64937;SHT30;51452;47.698;19.050;2023-06-26T00:57:41;20.56;64.79
64937;SHT30;51452;47.698;19.050;2023-06-26T01:00:08;20.58;65.18
64937;SHT30;51452;47.698;19.050;2023-06-26T01:02:35;20.52;65.17
64937;SHT30;51452;47.698;19.050;2023-06-26T01:05:01;20.51;65.12
64937;SHT30;51452;47.698;19.050;2023-06-26T01:07:32;20.51;64.52
64937;SHT30;51452;47.698;19.050;2023-06-26T01:10:00;20.42;65.46
64937;SHT30;51452;47.698;19.050;2023-06-26T01:12:25;20.42;65.42
64937;SHT30;51452;47.698;19.050;2023-06-26T01:14:51;20.35;66.02
64937;SHT30;51452;47.698;19.050;2023-06-26T01:17:16;20.32;65.12
64937;SHT30;51452;47.698;19.050;2023-06-26T01:19:43;20.36;64.58
64937;SHT30;51452;47.698;19.050;2023-06-26T01:22:33;20.34;64.67
64937;SHT30;51452;47.698;19.050;2023-06-26T01:25:21;20.35;65.41
64937;SHT30;51452;47.698;19.050;2023-06-26T01:27:50;20.39;64.50
64937;SHT30;51452;47.698;19.050;2023-06-26T01:30:17;20.41;64.88
64937;SHT30;51452;47.698;19.050;2023-06-26T01:32:44;20.51;64.91
64937;SHT30;51452;47.698;19.050;2023-06-26T01:35:11;20.51;64.82
64937;SHT30;51452;47.698;19.050;2023-06-26T01:37:36;20.45;65.61
64937;SHT30;51452;47.698;19.050;2023-06-26T01:40:02;20.42;65.81
64937;SHT30;51452;47.698;19.050;2023-06-26T01:42:31;20.41;66.50
64937;SHT30;51452;47.698;19.050;2023-06-26T01:44:56;20.38;66.67
64937;SHT30;51452;47.698;19.050;2023-06-26T01:47:24;20.34;65.18
64937;SHT30;51452;47.698;19.050;2023-06-26T01:50:04;20.25;66.40
64937;SHT30;51452;47.698;19.050;2023-06-26T01:52:53;20.04;67.19
64937;SHT30;51452;47.698;19.050;2023-06-26T01:55:43;19.90;68.61
64937;SHT30;51452;47.698;19.050;2023-06-26T01:58:13;19.90;68.78
64937;SHT30;51452;47.698;19.050;2023-06-26T02:00:39;19.83;69.41
64937;SHT30;51452;47.698;19.050;2023-06-26T02:03:05;19.76;70.02
64937;SHT30;51452;47.698;19.050;2023-06-26T02:05:31;19.74;69.86
64937;SHT30;51452;47.698;19.050;2023-06-26T02:07:57;19.73;69.60
64937;SHT30;51452;47.698;19.050;2023-06-26T02:10:22;19.78;69.64
64937;SHT30;51452;47.698;19.050;2023-06-26T02:12:48;19.80;69.37
64937;SHT30;51452;47.698;19.050;2023-06-26T02:15:13;19.71;70.17
64937;SHT30;51452;47.698;19.050;2023-06-26T02:17:38;19.69;70.46
64937;SHT30;51452;47.698;19.050;2023-06-26T02:20:04;19.47;71.02
64937;SHT30;51452;47.698;19.050;2023-06-26T02:22:31;19.43;71.30
64937;SHT30;51452;47.698;19.050;2023-06-26T02:24:56;19.45;71.01
64937;SHT30;51452;47.698;19.050;2023-06-26T02:27:21;19.39;71.77
64937;SHT30;51452;47.698;19.050;2023-06-26T02:29:47;19.37;71.50
64937;SHT30;51452;47.698;19.050;2023-06-26T02:32:13;19.32;71.10
64937;SHT30;51452;47.698;19.050;2023-06-26T02:34:38;19.30;71.56
64937;SHT30;51452;47.698;19.050;2023-06-26T02:37:04;19.30;71.46
64937;SHT30;51452;47.698;19.050;2023-06-26T02:39:33;19.22;71.88
64937;SHT30;51452;47.698;19.050;2023-06-26T02:41:58;19.32;71.79
64937;SHT30;51452;47.698;19.050;2023-06-26T02:44:24;19.36;71.86
64937;SHT30;51452;47.698;19.050;2023-06-26T02:46:50;19.35;71.86
64937;SHT30;51452;47.698;19.050;2023-06-26T02:49:15;19.35;71.78
64937;SHT30;51452;47.698;19.050;2023-06-26T02:51:41;19.30;71.66
64937;SHT30;51452;47.698;19.050;2023-06-26T02:54:06;19.25;71.99
64937;SHT30;51452;47.698;19.050;2023-06-26T02:56:32;19.14;72.53
64937;SHT30;51452;47.698;19.050;2023-06-26T02:58:57;19.14;72.67
64937;SHT30;51452;47.698;19.050;2023-06-26T03:01:23;19.18;72.82
64937;SHT30;51452;47.698;19.050;2023-06-26T03:03:48;19.20;73.95
64937;SHT30;51452;47.698;19.050;2023-06-26T03:06:14;19.23;73.62
64937;SHT30;51452;47.698;19.050;2023-06-26T03:08:40;19.26;73.79
64937;SHT30;51452;47.698;19.050;2023-06-26T03:11:06;19.19;73.75
64937;SHT30;51452;47.698;19.050;2023-06-26T03:13:32;19.27;72.85
64937;SHT30;51452;47.698;19.050;2023-06-26T03:15:58;19.19;71.41
64937;SHT30;51452;47.698;19.050;2023-06-26T03:18:23;19.12;71.62
64937;SHT30;51452;47.698;19.050;2023-06-26T03:20:49;19.11;72.04
64937;SHT30;51452;47.698;19.050;2023-06-26T03:23:14;19.08;72.42
64937;SHT30;51452;47.698;19.050;2023-06-26T03:25:39;18.96;72.45
64937;SHT30;51452;47.698;19.050;2023-06-26T03:28:05;18.83;72.53
64937;SHT30;51452;47.698;19.050;2023-06-26T03:30:30;18.88;73.06
64937;SHT30;51452;47.698;19.050;2023-06-26T03:32:56;18.95;72.98
64937;SHT30;51452;47.698;19.050;2023-06-26T03:35:21;18.94;72.54
64937;SHT30;51452;47.698;19.050;2023-06-26T03:37:48;18.96;72.92
64937;SHT30;51452;47.698;19.050;2023-06-26T03:40:14;19.02;73.18
64937;SHT30;51452;47.698;19.050;2023-06-26T03:42:39;19.12;72.79
64937;SHT30;51452;47.698;19.050;2023-06-26T03:45:05;19.02;71.97
64937;SHT30;51452;47.698;19.050;2023-06-26T03:47:31;19.12;72.91
64937;SHT30;51452;47.698;19.050;2023-06-26T03:49:56;19.16;73.01
64937;SHT30;51452;47.698;19.050;2023-06-26T03:52:22;19.18;73.26
64937;SHT30;51452;47.698;19.050;2023-06-26T03:54:47;19.30;73.27
64937;SHT30;51452;47.698;19.050;2023-06-26T03:57:14;19.32;73.34
64937;SHT30;51452;47.698;19.050;2023-06-26T03:59:39;19.36;73.48
64937;SHT30;51452;47.698;19.050;2023-06-26T04:02:04;19.47;74.13
64937;SHT30;51452;47.698;19.050;2023-06-26T04:04:30;19.52;74.02
64937;SHT30;51452;47.698;19.050;2023-06-26T04:06:55;19.59;74.32
64937;SHT30;51452;47.698;19.050;2023-06-26T04:09:21;19.67;74.53
64937;SHT30;51452;47.698;19.050;2023-06-26T04:11:46;19.71;73.56
64937;SHT30;51452;47.698;19.050;2023-06-26T04:14:12;19.73;73.37
64937;SHT30;51452;47.698;19.050;2023-06-26T04:16:38;19.80;73.97
64937;SHT30;51452;47.698;19.050;2023-06-26T04:19:03;19.87;74.53
64937;SHT30;51452;47.698;19.050;2023-06-26T04:21:30;19.94;74.84
64937;SHT30;51452;47.698;19.050;2023-06-26T04:23:55;20.05;75.00
64937;SHT30;51452;47.698;19.050;2023-06-26T04:26:21;20.05;74.76
64937;SHT30;51452;47.698;19.050;2023-06-26T04:28:46;20.10;75.43
64937;SHT30;51452;47.698;19.050;2023-06-26T04:31:11;20.15;74.91
64937;SHT30;51452;47.698;19.050;2023-06-26T04:33:37;20.24;75.27
64937;SHT30;51452;47.698;19.050;2023-06-26T04:36:03;20.36;75.68
64937;SHT30;51452;47.698;19.050;2023-06-26T04:38:32;20.41;76.13
64937;SHT30;51452;47.698;19.050;2023-06-26T04:40:59;20.53;76.54
64937;SHT30;51452;47.698;19.050;2023-06-26T04:43:24;20.56;74.42
64937;SHT30;51452;47.698;19.050;2023-06-26T04:45:50;20.56;73.25
64937;SHT30;51452;47.698;19.050;2023-06-26T04:48:15;20.65;72.52
64937;SHT30;51452;47.698;19.050;2023-06-26T04:50:40;20.69;71.80
64937;SHT30;51452;47.698;19.050;2023-06-26T04:53:06;20.72;72.03
64937;SHT30;51452;47.698;19.050;2023-06-26T04:55:31;20.77;72.48
64937;SHT30;51452;47.698;19.050;2023-06-26T04:57:57;20.83;71.54
64937;SHT30;51452;47.698;19.050;2023-06-26T05:00:23;20.86;70.98
64937;SHT30;51452;47.698;19.050;2023-06-26T05:02:51;20.97;71.71
64937;SHT30;51452;47.698;19.050;2023-06-26T05:05:28;20.96;70.62
64937;SHT30;51452;47.698;19.050;2023-06-26T05:07:54;21.02;70.41
64937;SHT30;51452;47.698;19.050;2023-06-26T05:10:20;21.06;70.07
64937;SHT30;51452;47.698;19.050;2023-06-26T05:12:46;21.04;70.36
64937;SHT30;51452;47.698;19.050;2023-06-26T05:15:11;21.14;71.31
64937;SHT30;51452;47.698;19.050;2023-06-26T05:17:36;21.22;71.76
64937;SHT30;51452;47.698;19.050;2023-06-26T05:20:02;21.24;71.02
64937;SHT30;51452;47.698;19.050;2023-06-26T05:22:29;21.33;70.59
64937;SHT30;51452;47.698;19.050;2023-06-26T05:24:55;21.44;70.85
64937;SHT30;51452;47.698;19.050;2023-06-26T05:27:24;21.47;70.49
64937;SHT30;51452;47.698;19.050;2023-06-26T05:29:50;21.40;72.25
64937;SHT30;51452;47.698;19.050;2023-06-26T05:32:16;21.61;71.41
64937;SHT30;51452;47.698;19.050;2023-06-26T05:34:48;21.64;71.35
64937;SHT30;51452;47.698;19.050;2023-06-26T05:37:26;21.69;70.99
64937;SHT30;51452;47.698;19.050;2023-06-26T05:39:52;21.78;70.57
64937;SHT30;51452;47.698;19.050;2023-06-26T05:42:18;21.73;71.49
64937;SHT30;51452;47.698;19.050;2023-06-26T05:44:43;21.92;70.88
64937;SHT30;51452;47.698;19.050;2023-06-26T05:47:09;21.96;71.24
64937;SHT30;51452;47.698;19.050;2023-06-26T05:49:34;22.05;70.93
64937;SHT30;51452;47.698;19.050;2023-06-26T05:52:00;22.08;69.65
64937;SHT30;51452;47.698;19.050;2023-06-26T05:54:25;22.20;70.62
64937;SHT30;51452;47.698;19.050;2023-06-26T05:56:57;22.23;70.29
64937;SHT30;51452;47.698;19.050;2023-06-26T05:59:24;22.23;70.32
64937;SHT30;51452;47.698;19.050;2023-06-26T06:01:51;22.32;69.80
64937;SHT30;51452;47.698;19.050;2023-06-26T06:04:17;22.42;69.33
64937;SHT30;51452;47.698;19.050;2023-06-26T06:06:42;22.47;69.65
64937;SHT30;51452;47.698;19.050;2023-06-26T06:09:07;22.56;70.51
64937;SHT30;51452;47.698;19.050;2023-06-26T06:11:33;22.63;68.73
64937;SHT30;51452;47.698;19.050;2023-06-26T06:13:58;22.68;68.95
64937;SHT30;51452;47.698;19.050;2023-06-26T06:16:25;22.74;66.68
64937;SHT30;51452;47.698;19.050;2023-06-26T06:18:50;22.81;66.40
64937;SHT30;51452;47.698;19.050;2023-06-26T06:21:16;22.90;68.14
64937;SHT30;51452;47.698;19.050;2023-06-26T06:23:41;22.94;64.41
64937;SHT30;51452;47.698;19.050;2023-06-26T06:26:07;23.04;65.54
64937;SHT30;51452;47.698;19.050;2023-06-26T06:28:32;23.05;64.35
64937;SHT30;51452;47.698;19.050;2023-06-26T06:30:57;23.04;64.21
64937;SHT30;51452;47.698;19.050;2023-06-26T06:33:23;23.11;62.46
64937;SHT30;51452;47.698;19.050;2023-06-26T06:35:48;23.24;62.53
64937;SHT30;51452;47.698;19.050;2023-06-26T06:38:13;23.18;59.28
64937;SHT30;51452;47.698;19.050;2023-06-26T06:40:39;23.27;59.47
64937;SHT30;51452;47.698;19.050;2023-06-26T06:43:04;23.38;58.23
64937;SHT30;51452;47.698;19.050;2023-06-26T06:45:30;23.41;60.41
64937;SHT30;51452;47.698;19.050;2023-06-26T06:47:55;23.42;58.88
64937;SHT30;51452;47.698;19.050;2023-06-26T06:50:20;23.51;59.57
64937;SHT30;51452;47.698;19.050;2023-06-26T06:52:46;23.69;60.45
64937;SHT30;51452;47.698;19.050;2023-06-26T06:55:11;23.85;58.53
64937;SHT30;51452;47.698;19.050;2023-06-26T06:57:38;23.87;55.56
64937;SHT30;51452;47.698;19.050;2023-06-26T07:00:13;23.85;58.68
64937;SHT30;51452;47.698;19.050;2023-06-26T07:02:43;23.86;57.97
64937;SHT30;51452;47.698;19.050;2023-06-26T07:05:09;23.97;58.36
64937;SHT30;51452;47.698;19.050;2023-06-26T07:07:35;24.06;59.10
64937;SHT30;51452;47.698;19.050;2023-06-26T07:10:06;24.12;58.40
64937;SHT30;51452;47.698;19.050;2023-06-26T07:12:33;24.14;58.70
64937;SHT30;51452;47.698;19.050;2023-06-26T07:15:00;24.10;55.72
64937;SHT30;51452;47.698;19.050;2023-06-26T07:17:25;24.18;56.66
64937;SHT30;51452;47.698;19.050;2023-06-26T07:19:51;24.26;56.16
64937;SHT30;51452;47.698;19.050;2023-06-26T07:22:16;24.27;57.33
64937;SHT30;51452;47.698;19.050;2023-06-26T07:24:42;24.34;58.27
64937;SHT30;51452;47.698;19.050;2023-06-26T07:27:07;24.37;56.33
64937;SHT30;51452;47.698;19.050;2023-06-26T07:29:33;24.37;57.47
64937;SHT30;51452;47.698;19.050;2023-06-26T07:31:58;24.41;57.40
64937;SHT30;51452;47.698;19.050;2023-06-26T07:34:24;24.43;56.53
64937;SHT30;51452;47.698;19.050;2023-06-26T07:36:49;24.50;57.52
64937;SHT30;51452;47.698;19.050;2023-06-26T07:39:14;24.50;56.67
64937;SHT30;51452;47.698;19.050;2023-06-26T07:41:40;24.53;56.88
64937;SHT30;51452;47.698;19.050;2023-06-26T07:44:05;24.61;56.27
64937;SHT30;51452;47.698;19.050;2023-06-26T07:46:31;24.48;54.50
64937;SHT30;51452;47.698;19.050;2023-06-26T07:48:56;24.61;56.39
64937;SHT30;51452;47.698;19.050;2023-06-26T07:51:21;24.65;56.46
64937;SHT30;51452;47.698;19.050;2023-06-26T07:53:47;24.76;57.07
64937;SHT30;51452;47.698;19.050;2023-06-26T07:56:12;24.72;54.84
64937;SHT30;51452;47.698;19.050;2023-06-26T07:58:38;24.72;56.29
64937;SHT30;51452;47.698;19.050;2023-06-26T08:01:03;24.81;55.46
64937;SHT30;51452;47.698;19.050;2023-06-26T08:03:28;24.91;55.84
64937;SHT30;51452;47.698;19.050;2023-06-26T08:05:54;24.88;55.97
64937;SHT30;51452;47.698;19.050;2023-06-26T08:08:19;24.96;56.20
64937;SHT30;51452;47.698;19.050;2023-06-26T08:10:45;25.05;54.96
64937;SHT30;51452;47.698;19.050;2023-06-26T08:13:10;25.09;54.86
64937;SHT30;51452;47.698;19.050;2023-06-26T08:15:36;25.25;54.11
64937;SHT30;51452;47.698;19.050;2023-06-26T08:18:01;25.40;54.56
64937;SHT30;51452;47.698;19.050;2023-06-26T08:20:26;25.39;53.09
64937;SHT30;51452;47.698;19.050;2023-06-26T08:22:53;25.45;52.81
64937;SHT30;51452;47.698;19.050;2023-06-26T08:25:19;25.40;54.42
64937;SHT30;51452;47.698;19.050;2023-06-26T08:27:45;25.27;54.73
64937;SHT30;51452;47.698;19.050;2023-06-26T08:30:11;25.33;55.14
64937;SHT30;51452;47.698;19.050;2023-06-26T08:32:36;25.27;53.81
64937;SHT30;51452;47.698;19.050;2023-06-26T08:35:02;25.49;53.50
64937;SHT30;51452;47.698;19.050;2023-06-26T08:37:27;25.46;51.99
64937;SHT30;51452;47.698;19.050;2023-06-26T08:39:52;25.36;53.36
64937;SHT30;51452;47.698;19.050;2023-06-26T08:42:18;25.25;53.66
64937;SHT30;51452;47.698;19.050;2023-06-26T08:44:43;25.37;54.80
64937;SHT30;51452;47.698;19.050;2023-06-26T08:47:11;25.49;55.61
64937;SHT30;51452;47.698;19.050;2023-06-26T08:49:46;25.46;53.37
64937;SHT30;51452;47.698;19.050;2023-06-26T08:52:17;25.60;54.13
64937;SHT30;51452;47.698;19.050;2023-06-26T08:54:46;25.67;52.24
64937;SHT30;51452;47.698;19.050;2023-06-26T08:57:14;25.62;53.44
64937;SHT30;51452;47.698;19.050;2023-06-26T08:59:41;25.67;53.90
64937;SHT30;51452;47.698;19.050;2023-06-26T09:02:06;25.62;52.20
64937;SHT30;51452;47.698;19.050;2023-06-26T09:04:32;25.49;52.94
64937;SHT30;51452;47.698;19.050;2023-06-26T09:06:57;25.26;54.28
64937;SHT30;51452;47.698;19.050;2023-06-26T09:09:23;25.18;53.67
64937;SHT30;51452;47.698;19.050;2023-06-26T09:11:48;25.25;52.37
64937;SHT30;51452;47.698;19.050;2023-06-26T09:14:13;25.39;53.27
64937;SHT30;51452;47.698;19.050;2023-06-26T09:16:40;25.46;50.93
64937;SHT30;51452;47.698;19.050;2023-06-26T09:19:11;25.63;52.16
64937;SHT30;51452;47.698;19.050;2023-06-26T09:21:41;25.66;52.66
64937;SHT30;51452;47.698;19.050;2023-06-26T09:24:08;25.73;49.34
64937;SHT30;51452;47.698;19.050;2023-06-26T09:26:37;25.77;51.43
64937;SHT30;51452;47.698;19.050;2023-06-26T09:29:04;25.87;52.30
64937;SHT30;51452;47.698;19.050;2023-06-26T09:31:30;25.87;49.64
64937;SHT30;51452;47.698;19.050;2023-06-26T09:33:59;25.84;53.39
64937;SHT30;51452;47.698;19.050;2023-06-26T09:36:28;25.81;51.99
64937;SHT30;51452;47.698;19.050;2023-06-26T09:38:54;25.70;50.57
64937;SHT30;51452;47.698;19.050;2023-06-26T09:41:19;25.84;52.16
64937;SHT30;51452;47.698;19.050;2023-06-26T09:43:49;26.11;51.94
64937;SHT30;51452;47.698;19.050;2023-06-26T09:46:28;26.28;50.90
64937;SHT30;51452;47.698;19.050;2023-06-26T09:49:08;26.44;49.83
64937;SHT30;51452;47.698;19.050;2023-06-26T09:51:35;26.65;51.70
64937;SHT30;51452;47.698;19.050;2023-06-26T09:54:02;26.68;52.26
64937;SHT30;51452;47.698;19.050;2023-06-26T09:56:28;26.86;50.97
64937;SHT30;51452;47.698;19.050;2023-06-26T09:58:57;26.56;49.50
64937;SHT30;51452;47.698;19.050;2023-06-26T10:01:24;26.52;51.30
64937;SHT30;51452;47.698;19.050;2023-06-26T10:03:49;26.44;52.77
64937;SHT30;51452;47.698;19.050;2023-06-26T10:06:19;26.18;52.99
64937;SHT30;51452;47.698;19.050;2023-06-26T10:08:45;26.04;50.82
64937;SHT30;51452;47.698;19.050;2023-06-26T10:11:16;25.93;53.57
64937;SHT30;51452;47.698;19.050;2023-06-26T10:13:47;25.80;52.43
64937;SHT30;51452;47.698;19.050;2023-06-26T10:16:21;25.73;55.92
64937;SHT30;51452;47.698;19.050;2023-06-26T10:18:50;25.70;53.52
64937;SHT30;51452;47.698;19.050;2023-06-26T10:21:18;25.60;54.17
64937;SHT30;51452;47.698;19.050;2023-06-26T10:23:45;25.67;54.12
64937;SHT30;51452;47.698;19.050;2023-06-26T10:26:11;25.70;54.23
64937;SHT30;51452;47.698;19.050;2023-06-26T10:28:38;25.70;54.38
64937;SHT30;51452;47.698;19.050;2023-06-26T10:31:07;25.66;54.11
64937;SHT30;51452;47.698;19.050;2023-06-26T10:33:34;25.64;54.63
64937;SHT30;51452;47.698;19.050;2023-06-26T10:36:20;25.57;54.33
64937;SHT30;51452;47.698;19.050;2023-06-26T10:38:54;25.64;55.40
64937;SHT30;51452;47.698;19.050;2023-06-26T10:41:24;25.64;54.88
64937;SHT30;51452;47.698;19.050;2023-06-26T10:43:51;25.87;54.00
64937;SHT30;51452;47.698;19.050;2023-06-26T10:46:18;26.13;54.40
64937;SHT30;51452;47.698;19.050;2023-06-26T10:48:58;26.22;52.20
64937;SHT30;51452;47.698;19.050;2023-06-26T10:51:26;26.35;51.71
64937;SHT30;51452;47.698;19.050;2023-06-26T10:53:56;26.46;50.96
64937;SHT30;51452;47.698;19.050;2023-06-26T10:56:50;26.35;53.07
64937;SHT30;51452;47.698;19.050;2023-06-26T10:59:16;26.29;50.70
64937;SHT30;51452;47.698;19.050;2023-06-26T11:01:44;26.15;51.45
64937;SHT30;51452;47.698;19.050;2023-06-26T11:04:12;26.05;50.11
64937;SHT30;51452;47.698;19.050;2023-06-26T11:06:40;26.05;51.37
64937;SHT30;51452;47.698;19.050;2023-06-26T11:09:06;26.24;50.89
64937;SHT30;51452;47.698;19.050;2023-06-26T11:14:17;26.49;52.85
64937;SHT30;51452;47.698;19.050;2023-06-26T11:16:43;26.72;50.21
64937;SHT30;51452;47.698;19.050;2023-06-26T11:19:09;26.79;49.27
64937;SHT30;51452;47.698;19.050;2023-06-26T11:21:37;26.87;50.42
64937;SHT30;51452;47.698;19.050;2023-06-26T11:24:04;27.02;48.42
64937;SHT30;51452;47.698;19.050;2023-06-26T11:26:31;27.08;51.61
64937;SHT30;51452;47.698;19.050;2023-06-26T11:29:02;27.26;49.64
64937;SHT30;51452;47.698;19.050;2023-06-26T11:33:55;27.50;50.01
64937;SHT30;51452;47.698;19.050;2023-06-26T11:36:25;27.38;48.86
64937;SHT30;51452;47.698;19.050;2023-06-26T11:38:59;27.16;49.37
64937;SHT30;51452;47.698;19.050;2023-06-26T11:41:27;27.07;51.07
64937;SHT30;51452;47.698;19.050;2023-06-26T11:43:53;27.11;51.35
64937;SHT30;51452;47.698;19.050;2023-06-26T11:46:20;27.02;53.90
64937;SHT30;51452;47.698;19.050;2023-06-26T11:48:45;26.99;52.04
64937;SHT30;51452;47.698;19.050;2023-06-26T11:51:15;26.80;50.46
64937;SHT30;51452;47.698;19.050;2023-06-26T11:53:42;26.59;50.56
64937;SHT30;51452;47.698;19.050;2023-06-26T11:56:15;26.51;52.21
64937;SHT30;51452;47.698;19.050;2023-06-26T11:59:06;26.36;52.87
64937;SHT30;51452;47.698;19.050;2023-06-26T12:01:43;26.38;51.68
64937;SHT30;51452;47.698;19.050;2023-06-26T12:04:15;26.31;51.72
64937;SHT30;51452;47.698;19.050;2023-06-26T12:06:45;26.29;56.19
64937;SHT30;51452;47.698;19.050;2023-06-26T12:09:12;26.29;58.28
64937;SHT30;51452;47.698;19.050;2023-06-26T12:11:42;26.34;53.42
64937;SHT30;51452;47.698;19.050;2023-06-26T12:14:08;26.41;48.87
64937;SHT30;51452;47.698;19.050;2023-06-26T12:16:35;26.72;49.52
64937;SHT30;51452;47.698;19.050;2023-06-26T12:19:02;26.92;51.28
64937;SHT30;51452;47.698;19.050;2023-06-26T12:24:07;26.80;47.83
64937;SHT30;51452;47.698;19.050;2023-06-26T12:26:32;26.76;49.97
64937;SHT30;51452;47.698;19.050;2023-06-26T12:29:05;26.63;50.16
64937;SHT30;51452;47.698;19.050;2023-06-26T12:31:32;26.53;51.41
64937;SHT30;51452;47.698;19.050;2023-06-26T12:33:58;26.52;52.03
64937;SHT30;51452;47.698;19.050;2023-06-26T12:36:23;26.49;52.16
64937;SHT30;51452;47.698;19.050;2023-06-26T12:38:49;26.41;55.00
64937;SHT30;51452;47.698;19.050;2023-06-26T12:41:15;26.31;54.19
64937;SHT30;51452;47.698;19.050;2023-06-26T12:43:41;26.31;54.10
64937;SHT30;51452;47.698;19.050;2023-06-26T12:46:07;26.35;54.64
64937;SHT30;51452;47.698;19.050;2023-06-26T12:48:40;26.52;57.02
64937;SHT30;51452;47.698;19.050;2023-06-26T12:51:17;26.76;53.71
64937;SHT30;51452;47.698;19.050;2023-06-26T12:53:43;26.99;51.05
64937;SHT30;51452;47.698;19.050;2023-06-26T12:56:09;27.10;52.24
64937;SHT30;51452;47.698;19.050;2023-06-26T12:58:36;27.23;50.99
64937;SHT30;51452;47.698;19.050;2023-06-26T13:01:06;27.37;51.60
64937;SHT30;51452;47.698;19.050;2023-06-26T13:03:40;27.53;52.46
64937;SHT30;51452;47.698;19.050;2023-06-26T13:06:06;27.72;49.78
64937;SHT30;51452;47.698;19.050;2023-06-26T13:08:31;27.81;51.40
64937;SHT30;51452;47.698;19.050;2023-06-26T13:10:56;27.65;48.61
64937;SHT30;51452;47.698;19.050;2023-06-26T13:13:22;27.74;48.09
64937;SHT30;51452;47.698;19.050;2023-06-26T13:15:47;27.94;51.53
64937;SHT30;51452;47.698;19.050;2023-06-26T13:18:13;27.98;49.89
64937;SHT30;51452;47.698;19.050;2023-06-26T13:20:38;28.09;48.14
64937;SHT30;51452;47.698;19.050;2023-06-26T13:23:03;28.17;49.41
64937;SHT30;51452;47.698;19.050;2023-06-26T13:25:29;28.13;47.83
64937;SHT30;51452;47.698;19.050;2023-06-26T13:27:54;28.09;46.70
64937;SHT30;51452;47.698;19.050;2023-06-26T13:30:21;28.09;45.44
64937;SHT30;51452;47.698;19.050;2023-06-26T13:32:46;28.04;46.25
64937;SHT30;51452;47.698;19.050;2023-06-26T13:35:12;28.02;47.15
64937;SHT30;51452;47.698;19.050;2023-06-26T13:37:39;28.10;47.54
64937;SHT30;51452;47.698;19.050;2023-06-26T13:40:05;28.15;48.85
64937;SHT30;51452;47.698;19.050;2023-06-26T13:42:32;28.04;44.15
64937;SHT30;51452;47.698;19.050;2023-06-26T13:44:57;28.09;46.36
64937;SHT30;51452;47.698;19.050;2023-06-26T13:47:23;28.19;45.78
64937;SHT30;51452;47.698;19.050;2023-06-26T13:49:48;28.22;47.05
64937;SHT30;51452;47.698;19.050;2023-06-26T13:52:14;28.26;48.74
64937;SHT30;51452;47.698;19.050;2023-06-26T13:54:39;28.35;46.33
64937;SHT30;51452;47.698;19.050;2023-06-26T13:57:06;28.39;47.91
64937;SHT30;51452;47.698;19.050;2023-06-26T13:59:32;28.26;45.98
64937;SHT30;51452;47.698;19.050;2023-06-26T14:01:58;28.26;47.49
64937;SHT30;51452;47.698;19.050;2023-06-26T14:04:24;28.29;45.24
64937;SHT30;51452;47.698;19.050;2023-06-26T14:06:50;28.17;45.57
64937;SHT30;51452;47.698;19.050;2023-06-26T14:09:15;28.17;45.80
64937;SHT30;51452;47.698;19.050;2023-06-26T14:11:40;28.26;46.04
64937;SHT30;51452;47.698;19.050;2023-06-26T14:14:06;28.16;45.82
64937;SHT30;51452;47.698;19.050;2023-06-26T14:16:32;28.32;45.63
64937;SHT30;51452;47.698;19.050;2023-06-26T14:18:58;28.32;46.28
64937;SHT30;51452;47.698;19.050;2023-06-26T14:21:23;28.32;46.11
64937;SHT30;51452;47.698;19.050;2023-06-26T14:23:49;28.20;44.80
64937;SHT30;51452;47.698;19.050;2023-06-26T14:26:15;28.31;45.89
64937;SHT30;51452;47.698;19.050;2023-06-26T14:28:40;28.31;47.02
64937;SHT30;51452;47.698;19.050;2023-06-26T14:31:06;28.27;48.63
64937;SHT30;51452;47.698;19.050;2023-06-26T14:33:31;28.29;44.41
64937;SHT30;51452;47.698;19.050;2023-06-26T14:35:56;28.22;46.76
64937;SHT30;51452;47.698;19.050;2023-06-26T14:38:22;28.27;43.79
64937;SHT30;51452;47.698;19.050;2023-06-26T14:40:47;28.09;47.33
64937;SHT30;51452;47.698;19.050;2023-06-26T14:43:13;28.08;47.82
64937;SHT30;51452;47.698;19.050;2023-06-26T14:45:38;28.08;46.54
64937;SHT30;51452;47.698;19.050;2023-06-26T14:48:04;28.09;47.56
64937;SHT30;51452;47.698;19.050;2023-06-26T14:50:29;28.08;45.81
64937;SHT30;51452;47.698;19.050;2023-06-26T14:52:54;28.10;46.23
64937;SHT30;51452;47.698;19.050;2023-06-26T14:55:20;28.02;48.30
64937;SHT30;51452;47.698;19.050;2023-06-26T14:57:45;28.10;48.33
64937;SHT30;51452;47.698;19.050;2023-06-26T15:00:11;28.12;49.46
64937;SHT30;51452;47.698;19.050;2023-06-26T15:02:36;28.12;48.59
64937;SHT30;51452;47.698;19.050;2023-06-26T15:05:02;28.06;46.59
64937;SHT30;51452;47.698;19.050;2023-06-26T15:07:28;28.12;44.20
64937;SHT30;51452;47.698;19.050;2023-06-26T15:09:53;28.06;44.46
64937;SHT30;51452;47.698;19.050;2023-06-26T15:12:18;27.99;44.21
64937;SHT30;51452;47.698;19.050;2023-06-26T15:14:44;28.10;45.61
64937;SHT30;51452;47.698;19.050;2023-06-26T15:17:09;28.08;43.23
64937;SHT30;51452;47.698;19.050;2023-06-26T15:19:36;28.09;44.05
64937;SHT30;51452;47.698;19.050;2023-06-26T15:22:01;28.12;44.80